<?xml version="1.0" encoding="UTF-8" standalone="no" ?>
<gpx xmlns="http://www.topografix.com/GPX/1/1" xmlns:xsi="http://www.w3.org/2001/XMLSchema-instance" xsi:schemaLocation="http://www.topografix.com/GPX/1/1 http://www.topografix.com/GPX/1/1/gpx.xsd" version="1.1" creator="VisuGPX - https://www.visugpx.com">
  <metadata>
    <name>Marche ADEPS 2024 5 km</name>
  </metadata>
  <trk>
    <name><![CDATA[Enregistrement du 28/07/24]]></name>
    <extensions>
      <line xmlns="http://www.topografix.com/GPX/gpx_style/0/2">
        <color>0000FF</color>
        <width>4</width>
      </line>
    </extensions>
    <trkseg>
      <trkpt lat="50.27627" lon="4.49959">
        <ele>191.7</ele>
        <time>2024-07-28T07:14:47Z</time>
      </trkpt>
      <trkpt lat="50.2764" lon="4.49997">
        <ele>191</ele>
        <time>2024-07-28T07:14:57Z</time>
      </trkpt>
      <trkpt lat="50.27655" lon="4.50023">
        <ele>190.8</ele>
        <time>2024-07-28T07:15:06Z</time>
      </trkpt>
      <trkpt lat="50.27666" lon="4.50027">
        <ele>190</ele>
        <time>2024-07-28T07:15:14Z</time>
      </trkpt>
      <trkpt lat="50.27714" lon="4.50165">
        <ele>191.5</ele>
        <time>2024-07-28T07:23:05Z</time>
      </trkpt>
      <trkpt lat="50.27734" lon="4.50474">
        <ele>192.8</ele>
      </trkpt>
      <trkpt lat="50.27811" lon="4.50573">
        <ele>189.6</ele>
        <time>2024-07-28T07:23:10Z</time>
      </trkpt>
      <trkpt lat="50.27879" lon="4.50634">
        <ele>180</ele>
        <time>2024-07-28T07:23:20Z</time>
      </trkpt>
      <trkpt lat="50.27894" lon="4.50676">
        <ele>180</ele>
        <time>2024-07-28T07:23:28Z</time>
      </trkpt>
      <trkpt lat="50.27903" lon="4.507">
        <ele>181</ele>
        <time>2024-07-28T07:23:36Z</time>
      </trkpt>
      <trkpt lat="50.27909" lon="4.50717">
        <ele>181</ele>
        <time>2024-07-28T07:23:46Z</time>
      </trkpt>
      <trkpt lat="50.27915" lon="4.50742">
        <ele>181</ele>
        <time>2024-07-28T07:23:54Z</time>
      </trkpt>
      <trkpt lat="50.27916" lon="4.50749">
        <ele>181</ele>
        <time>2024-07-28T07:24:03Z</time>
      </trkpt>
      <trkpt lat="50.27918" lon="4.50762">
        <ele>182</ele>
        <time>2024-07-28T07:24:11Z</time>
      </trkpt>
      <trkpt lat="50.27921" lon="4.50776">
        <ele>183</ele>
        <time>2024-07-28T07:24:19Z</time>
      </trkpt>
      <trkpt lat="50.27925" lon="4.50799">
        <ele>182</ele>
        <time>2024-07-28T07:24:28Z</time>
      </trkpt>
      <trkpt lat="50.27947" lon="4.50873">
        <ele>186.3</ele>
      </trkpt>
      <trkpt lat="50.28026" lon="4.50935">
        <ele>187.3</ele>
        <time>2024-07-28T07:28:53Z</time>
      </trkpt>
      <trkpt lat="50.28103" lon="4.50984">
        <ele>184</ele>
        <time>2024-07-28T07:28:58Z</time>
      </trkpt>
      <trkpt lat="50.28133" lon="4.51022">
        <ele>184</ele>
        <time>2024-07-28T07:29:04Z</time>
      </trkpt>
      <trkpt lat="50.2815" lon="4.51041">
        <ele>184</ele>
        <time>2024-07-28T07:29:16Z</time>
      </trkpt>
      <trkpt lat="50.28206" lon="4.51115">
        <ele>192.3</ele>
      </trkpt>
      <trkpt lat="50.2835" lon="4.51229">
        <ele>192.3</ele>
      </trkpt>
      <trkpt lat="50.2844" lon="4.51334">
        <ele>195.3</ele>
      </trkpt>
      <trkpt lat="50.28464" lon="4.51347">
        <ele>193</ele>
        <time>2024-07-28T07:34:39Z</time>
      </trkpt>
      <trkpt lat="50.2847" lon="4.51372">
        <ele>194</ele>
        <time>2024-07-28T07:34:48Z</time>
      </trkpt>
      <trkpt lat="50.28593" lon="4.51637">
        <ele>192.9</ele>
      </trkpt>
      <trkpt lat="50.28621" lon="4.51658">
        <ele>193.1</ele>
      </trkpt>
      <trkpt lat="50.28682" lon="4.51645">
        <ele>192.7</ele>
      </trkpt>
      <trkpt lat="50.28669" lon="4.51502">
        <ele>190.8</ele>
      </trkpt>
      <trkpt lat="50.28682" lon="4.51442">
        <ele>194.9</ele>
      </trkpt>
      <trkpt lat="50.2868" lon="4.51341">
        <ele>199.5</ele>
      </trkpt>
      <trkpt lat="50.28664" lon="4.51139">
        <ele>208.6</ele>
      </trkpt>
      <trkpt lat="50.28654" lon="4.5089">
        <ele>223.2</ele>
        <time>2024-07-28T07:50:49Z</time>
      </trkpt>
      <trkpt lat="50.28668" lon="4.50785">
        <ele>227.1</ele>
        <time>2024-07-28T07:50:58Z</time>
      </trkpt>
      <trkpt lat="50.28702" lon="4.50718">
        <ele>227.9</ele>
        <time>2024-07-28T07:51:09Z</time>
      </trkpt>
      <trkpt lat="50.28724" lon="4.5068">
        <ele>227.5</ele>
      </trkpt>
      <trkpt lat="50.28738" lon="4.5068">
        <ele>224</ele>
        <time>2024-07-28T07:51:17Z</time>
      </trkpt>
      <trkpt lat="50.28758" lon="4.50648">
        <ele>224</ele>
        <time>2024-07-28T07:51:26Z</time>
      </trkpt>
      <trkpt lat="50.28846" lon="4.50579">
        <ele>224.4</ele>
      </trkpt>
      <trkpt lat="50.28893" lon="4.50519">
        <ele>220.5</ele>
      </trkpt>
      <trkpt lat="50.289" lon="4.50487">
        <ele>219.1</ele>
      </trkpt>
      <trkpt lat="50.28645" lon="4.50234">
        <ele>214.4</ele>
      </trkpt>
      <trkpt lat="50.28524" lon="4.50188">
        <ele>213.1</ele>
        <time>2024-07-28T08:05:14Z</time>
      </trkpt>
      <trkpt lat="50.28431" lon="4.50034">
        <ele>215</ele>
        <time>2024-07-28T08:05:29Z</time>
      </trkpt>
      <trkpt lat="50.28336" lon="4.49924">
        <ele>212</ele>
        <time>2024-07-28T08:05:37Z</time>
      </trkpt>
      <trkpt lat="50.28291" lon="4.49849">
        <ele>208</ele>
        <time>2024-07-28T08:05:46Z</time>
      </trkpt>
      <trkpt lat="50.28279" lon="4.4983">
        <ele>198</ele>
        <time>2024-07-28T08:07:42Z</time>
      </trkpt>
      <trkpt lat="50.28247" lon="4.49723">
        <ele>203</ele>
        <time>2024-07-28T08:07:47Z</time>
      </trkpt>
      <trkpt lat="50.28221" lon="4.49639">
        <ele>207</ele>
        <time>2024-07-28T08:07:57Z</time>
      </trkpt>
      <trkpt lat="50.28218" lon="4.49633">
        <ele>205</ele>
        <time>2024-07-28T08:08:06Z</time>
      </trkpt>
      <trkpt lat="50.28166" lon="4.4947">
        <ele>199.8</ele>
      </trkpt>
      <trkpt lat="50.2808" lon="4.49326">
        <ele>192.6</ele>
      </trkpt>
      <trkpt lat="50.28019" lon="4.49285">
        <ele>191.4</ele>
        <time>2024-07-28T08:21:37Z</time>
      </trkpt>
      <trkpt lat="50.2798" lon="4.49266">
        <ele>186.8</ele>
      </trkpt>
      <trkpt lat="50.2796" lon="4.49259">
        <ele>183.9</ele>
      </trkpt>
      <trkpt lat="50.27815" lon="4.49379">
        <ele>184.9</ele>
      </trkpt>
      <trkpt lat="50.27763" lon="4.49405">
        <ele>187.8</ele>
        <time>2024-07-28T08:21:42Z</time>
      </trkpt>
      <trkpt lat="50.27753" lon="4.49489">
        <ele>189</ele>
      </trkpt>
      <trkpt lat="50.27723" lon="4.49611">
        <ele>188</ele>
        <time>2024-07-28T08:21:47Z</time>
      </trkpt>
      <trkpt lat="50.27716" lon="4.49667">
        <ele>188.2</ele>
        <time>2024-07-28T08:21:52Z</time>
      </trkpt>
      <trkpt lat="50.27718" lon="4.4977">
        <ele>187.4</ele>
        <time>2024-07-28T08:21:57Z</time>
      </trkpt>
      <trkpt lat="50.27671" lon="4.49849">
        <ele>189.8</ele>
        <time>2024-07-28T08:22:02Z</time>
      </trkpt>
      <trkpt lat="50.27641" lon="4.49932">
        <ele>195</ele>
        <time>2024-07-28T08:22:08Z</time>
      </trkpt>
    </trkseg>
  </trk>
</gpx>